Bastogne, Belgium
Current Conditions -  °F | °C
As of 5:20 AM on Sunday 26 Oct 2014 (Local Time) from ELLX Reporting Station
Clear Clear  
Wind Chill: 43°   Ceiling: Unl
Heat Index: 43°   Visibility: 3mi
Dew Point: 43°   Wind: 1mph
Humidity: 100%   Direction: NA
Pressure: 30.27"   Gusts: NA
Location:  50°N, 5.72°E
Report Text: ELLX 260320Z VRB01KT 5000 R24/0750VP1500U NSC 06/06 Q1025 NOSIG
Loading
Personal Weather Stations






























Interactive Weather Map
Tropical Storm Tracking
New forecast layout! Learn more

10-Day Weather Forecast

Advertisements
Track Severe Weather on mobile